Houlton, ME

7:02 AM EDT on April 19, 2015 (GMT -0400)
Houlton International | | Change Station
CLOSE
Current Station
Airport
Location: Houlton,
Elevation: 492 ft
Nearby Weather Stations
Active Advisory: Flood Warning

Elev 492 ft 46.12 °N, 67.79 °W | Updated 9 minutes ago

Overcast
Overcast
35 °F
Feels Like 31 °F
N
5
Wind Variable Wind from NW

Today
High -- | Low -- °F
--% Chance of Precip.
Yesterday
High -- | Low -- °F
Precip. -- in
5:38 AM 7:23 PM
New Moon, 1% visible
Pressure 30.18 in
Visibility 10.0 miles
Clouds Overcast 5000 ft
Windchill 31 °F
Dew Point 27 °F
Humidity 72%
Rainfall 0.00 in
Snow Depth Not available.
UV 0 out of 12
Pollen 5.50 out of 12
Air Quality Not available.
Flu Activity Regional
METAR KHUL 191053Z AUTO 31004KT 10SM OVC050 02/M03 A3017 RMK AO2 SLP220 T00171028

More Conditions Fewer Conditions

Pressure 30.18 in
Visibility 10.0 miles
Clouds Overcast 5000 ft
Windchill 31 °F
Dew Point 27 °F
Humidity 72%
Rainfall 0.00 in
Snow Depth Not available.
UV 0 out of 12
Pollen 5.50 out of 12
Air Quality Not available.
Flu Activity Regional
METAR KHUL 191053Z AUTO 31004KT 10SM OVC050 02/M03 A3017 RMK AO2 SLP220 T00171028

More Conditions Fewer Conditions

10-Day Weather Forecast

Almanac

Astronomy

Apr. 19, 2015 Rise Set
Actual Time
Civil Twilight
Nautical Twilight
Astronomical Twilight
Moon
Length of Visible Light
Length of Day
Tomorrow will be .
, % of the Moon is Illuminated

Today's Extremes

State Highs State Lows

Community

WunderPhotos

Upload Photos

1,814,756 photos uploaded!

WunderBlogs® & News

Nearby

Air Quality

  Air Quality AQ Index Pollutant
Not available.

Snow Depth

Station Depth Elevation

Earthquake Activity

City Distance Mag. Time & Date
Minimum magnitude displayed is 2.5.

Coastal Water Temperatures

Place Temperature

Stations

Nearby Weather Stations

Station Location Temp. Windchill Dew Point Humidity Wind Precip. Elev Updated Type
                   
Flood Warning
Statement as of 5:53 AM EDT on April 19, 2015

... Flood Warning extended until this evening... the Flood Warning
continues for
the Aroostook River at Washburn
* until this evening... or until the warning is cancelled.
* At 5:30 am Sunday the stage was 16.3 feet
* minor flooding is occurring and minor flooding is forecast.
* Flood stage is 14.0 feet.
* Forecast... .due to the ongoing ice jam, sudden fluctuations are possible through the morning
until the ice is completely flushed out.


Lat... Lon 4669 6846 4682 6817 4676 6800 4669 6804
      4673 6817 4663 6835